createdAt,value
2023-04-02T00:02:21.945Z,98609.84
2023-04-02T00:05:16.698Z,98616.22
2023-04-02T00:07:51.628Z,98626.41
2023-04-02T00:10:30.062Z,98637.56
2023-04-02T00:13:06.856Z,98632.16
2023-04-02T00:15:41.622Z,98626.16
2023-04-02T00:18:16.588Z,98638.88
2023-04-02T00:20:55.208Z,98641.41
2023-04-02T00:23:29.967Z,98648.19
2023-04-02T00:26:02.913Z,98650.41
2023-04-02T00:28:37.233Z,98645.75
2023-04-02T00:31:11.744Z,98635.84
2023-04-02T00:33:45.077Z,98638.53
2023-04-02T00:36:20.599Z,98644.00
2023-04-02T00:38:54.491Z,98646.91
2023-04-02T00:41:30.729Z,98627.28
2023-04-02T00:44:06.547Z,98617.47
2023-04-02T00:46:46.990Z,98630.09
2023-04-02T00:49:26.197Z,98637.69
2023-04-02T00:52:01.609Z,98636.78
2023-04-02T00:54:40.225Z,98626.16
2023-04-02T00:57:16.518Z,98637.75
2023-04-02T00:59:54.556Z,98635.34
2023-04-02T01:02:31.633Z,98648.97
2023-04-02T01:05:11.357Z,98656.06
2023-04-02T01:07:51.926Z,98655.69
2023-04-02T01:10:32.698Z,98657.59
2023-04-02T01:13:13.570Z,98660.47
2023-04-02T01:15:52.691Z,98663.91
2023-04-02T01:18:31.749Z,98667.91
2023-04-02T01:21:23.096Z,98661.47
2023-04-02T01:24:01.312Z,98657.50
2023-04-02T01:26:41.884Z,98653.94
2023-04-02T01:29:17.805Z,98655.44
2023-04-02T01:31:52.042Z,98650.81
2023-04-02T01:34:26.749Z,98653.00
2023-04-02T01:37:07.684Z,98650.28
2023-04-02T01:39:46.921Z,98662.91
2023-04-02T01:42:22.096Z,98656.00
2023-04-02T01:45:02.463Z,98658.72
2023-04-02T01:47:36.135Z,98660.88
2023-04-02T01:50:18.517Z,98653.56
2023-04-02T01:52:52.587Z,98650.41
2023-04-02T01:55:30.466Z,98654.25
2023-04-02T01:58:04.784Z,98652.84
2023-04-02T02:00:42.695Z,98653.19
2023-04-02T02:03:16.755Z,98654.97
2023-04-02T02:05:49.845Z,98656.47
2023-04-02T02:08:26.332Z,98647.72
2023-04-02T02:10:59.705Z,98656.00
2023-04-02T02:13:33.630Z,98658.63
2023-04-02T02:16:13.595Z,98662.78
2023-04-02T02:18:47.605Z,98652.97
2023-04-02T02:21:25.274Z,98661.13
2023-04-02T02:23:58.412Z,98663.66
2023-04-02T02:26:34.100Z,98656.84
2023-04-02T02:29:08.627Z,98658.53
2023-04-02T02:31:44.794Z,98657.97
2023-04-02T02:34:22.415Z,98663.72
2023-04-02T02:36:58.081Z,98663.66
2023-04-02T02:39:34.695Z,98669.81
2023-04-02T02:42:11.652Z,98664.88
2023-04-02T02:44:45.875Z,98665.81
2023-04-02T02:47:23.798Z,98664.38
2023-04-02T02:49:59.132Z,98666.47
2023-04-02T02:52:33.356Z,98667.13
2023-04-02T02:55:08.203Z,98664.69
2023-04-02T02:57:43.694Z,98663.91
2023-04-02T03:00:19.568Z,98669.19
2023-04-02T03:02:56.361Z,98678.75
2023-04-02T03:05:29.687Z,98674.41
2023-04-02T03:08:04.588Z,98681.97
2023-04-02T03:10:41.682Z,98677.53
2023-04-02T03:13:21.961Z,98679.16
2023-04-02T03:15:59.486Z,98677.66
2023-04-02T03:18:42.684Z,98683.06
2023-04-02T03:21:20.025Z,98679.69
2023-04-02T03:23:55.806Z,98691.66
2023-04-02T03:26:35.353Z,98695.91
2023-04-02T03:29:15.269Z,98685.31
2023-04-02T03:31:49.690Z,98693.16
2023-04-02T03:34:26.453Z,98695.63
2023-04-02T03:37:02.323Z,98691.94
2023-04-02T03:39:38.531Z,98699.72
2023-04-02T03:42:15.617Z,98696.59
2023-04-02T03:44:50.911Z,98694.31
2023-04-02T03:47:28.975Z,98695.69
2023-04-02T03:50:06.312Z,98697.88
2023-04-02T03:52:39.919Z,98693.53
2023-04-02T03:55:16.025Z,98702.22
2023-04-02T03:57:54.985Z,98705.09
2023-04-02T04:00:32.546Z,98703.13
2023-04-02T04:03:11.586Z,98704.69
2023-04-02T04:05:49.779Z,98705.56
2023-04-02T04:08:25.237Z,98716.31
2023-04-02T04:11:00.430Z,98699.41
2023-04-02T04:13:40.333Z,98703.41
2023-04-02T04:16:17.427Z,98697.91
2023-04-02T04:18:57.212Z,98706.56
2023-04-02T04:21:37.457Z,98713.03
2023-04-02T04:24:17.448Z,98723.47
2023-04-02T04:26:54.225Z,98728.22
2023-04-02T04:29:33.495Z,98734.56
2023-04-02T04:32:16.728Z,98726.16
2023-04-02T04:34:53.355Z,98732.41
2023-04-02T04:37:33.581Z,98734.75
2023-04-02T04:40:12.504Z,98734.06
2023-04-02T04:42:46.919Z,98736.78
2023-04-02T04:45:29.897Z,98733.84
2023-04-02T04:48:04.243Z,98733.63
2023-04-02T04:50:40.020Z,98729.72
2023-04-02T04:53:17.664Z,98734.22
2023-04-02T04:55:51.591Z,98726.31
2023-04-02T04:58:25.964Z,98721.25
2023-04-02T05:01:03.210Z,98726.22
2023-04-02T05:03:39.084Z,98724.00
2023-04-02T05:06:14.793Z,98726.59
2023-04-02T05:08:50.621Z,98728.44
2023-04-02T05:11:27.586Z,98731.50
2023-04-02T05:14:03.139Z,98739.69
2023-04-02T05:16:40.807Z,98744.19
2023-04-02T05:19:17.986Z,98740.63
2023-04-02T05:21:54.819Z,98743.56
2023-04-02T05:24:36.677Z,98746.16
2023-04-02T05:27:17.221Z,98745.44
2023-04-02T05:29:52.123Z,98737.91
2023-04-02T05:32:28.352Z,98740.00
2023-04-02T05:35:05.323Z,98741.03
2023-04-02T05:37:40.715Z,98745.19
2023-04-02T05:40:20.375Z,98748.66
2023-04-02T05:42:55.738Z,98745.63
2023-04-02T05:45:32.501Z,98751.81
2023-04-02T05:48:08.565Z,98748.94
2023-04-02T05:50:43.319Z,98763.94
2023-04-02T05:53:18.925Z,98761.44
2023-04-02T05:55:57.791Z,98759.00
2023-04-02T05:58:36.846Z,98762.38
2023-04-02T06:01:28.247Z,98756.38
2023-04-02T06:04:03.853Z,98759.44
2023-04-02T06:06:48.921Z,98753.94
2023-04-02T06:09:26.418Z,98756.78
2023-04-02T06:12:05.580Z,98759.16
2023-04-02T06:14:38.722Z,98756.22
2023-04-02T06:17:14.262Z,98755.88
2023-04-02T06:19:48.001Z,98761.56
2023-04-02T06:22:24.253Z,98763.25
2023-04-02T06:24:59.880Z,98770.75
2023-04-02T06:27:35.410Z,98759.22
2023-04-02T06:30:15.527Z,98771.91
2023-04-02T06:32:48.533Z,98776.78
2023-04-02T06:35:21.573Z,98776.81
2023-04-02T06:37:57.491Z,98782.97
2023-04-02T06:40:35.155Z,98789.53
2023-04-02T06:43:15.073Z,98778.91
2023-04-02T06:45:53.094Z,98784.59
2023-04-02T06:48:26.926Z,98798.53
2023-04-02T06:51:03.063Z,98796.34
2023-04-02T06:53:37.966Z,98799.53
2023-04-02T06:56:20.283Z,98797.34
2023-04-02T06:58:55.033Z,98797.00
2023-04-02T07:01:30.291Z,98794.44
2023-04-02T07:04:03.803Z,98802.63
2023-04-02T07:06:36.821Z,98805.09
2023-04-02T07:09:10.129Z,98797.50
2023-04-02T07:11:44.599Z,98809.38
2023-04-02T07:14:18.911Z,98808.84
2023-04-02T07:16:52.246Z,98807.00
2023-04-02T07:19:25.453Z,98795.66
2023-04-02T07:21:58.512Z,98809.56
2023-04-02T07:24:31.411Z,98811.25
2023-04-02T07:27:04.469Z,98808.38
2023-04-02T07:29:42.697Z,98809.91
2023-04-02T07:32:16.064Z,98817.97
2023-04-02T07:34:49.155Z,98815.44
2023-04-02T07:37:22.306Z,98815.47
2023-04-02T07:39:55.278Z,98825.50
2023-04-02T07:42:28.167Z,98823.69
2023-04-02T07:45:04.631Z,98825.84
2023-04-02T07:47:39.142Z,98828.19
2023-04-02T07:50:12.533Z,98822.69
2023-04-02T07:52:45.694Z,98834.88
2023-04-02T07:55:18.583Z,98833.59
2023-04-02T07:57:52.411Z,98826.66
2023-04-02T08:00:28.380Z,98829.19
2023-04-02T08:03:01.692Z,98831.84
2023-04-02T08:05:35.692Z,98833.88
2023-04-02T08:08:09.250Z,98831.84
2023-04-02T08:10:42.319Z,98835.50
2023-04-02T08:13:16.185Z,98826.47
2023-04-02T08:15:50.561Z,98836.38
2023-04-02T08:18:24.511Z,98828.50
2023-04-02T08:20:58.022Z,98822.28
2023-04-02T08:23:31.420Z,98830.47
2023-04-02T08:26:05.049Z,98821.63
2023-04-02T08:28:38.071Z,98826.81
2023-04-02T08:31:13.533Z,98817.69
2023-04-02T08:33:48.176Z,98825.03
2023-04-02T08:36:34.254Z,98819.03
2023-04-02T08:39:11.039Z,98810.41
2023-04-02T08:41:47.216Z,98819.91
2023-04-02T08:44:28.010Z,98810.13
2023-04-02T08:47:04.903Z,98812.94
2023-04-02T08:49:41.200Z,98830.31
2023-04-02T08:52:26.681Z,98818.03
2023-04-02T08:55:00.543Z,98827.56
2023-04-02T08:57:37.229Z,98817.19
2023-04-02T09:00:25.739Z,98820.66
2023-04-02T09:03:12.195Z,98832.94
2023-04-02T09:05:56.198Z,98827.03
2023-04-02T09:08:32.171Z,98819.53
2023-04-02T09:11:07.978Z,98816.81
2023-04-02T09:13:44.483Z,98816.66
2023-04-02T09:16:22.440Z,98810.78
2023-04-02T09:18:56.948Z,98808.78
2023-04-02T09:21:35.310Z,98813.53
2023-04-02T09:24:10.566Z,98811.59
2023-04-02T09:26:43.734Z,98804.47
2023-04-02T09:29:31.506Z,98804.28
2023-04-02T09:32:09.294Z,98796.41
2023-04-02T09:34:43.682Z,98795.84
2023-04-02T09:37:18.260Z,98796.84
2023-04-02T09:39:51.680Z,98787.50
2023-04-02T09:42:34.076Z,98789.44
2023-04-02T09:45:16.716Z,98786.75
2023-04-02T09:47:50.138Z,98790.34
2023-04-02T09:50:29.308Z,98796.59
2023-04-02T09:53:18.179Z,98787.94
2023-04-02T09:55:51.291Z,98779.50
2023-04-02T09:58:24.581Z,98795.44
2023-04-02T10:00:57.567Z,98784.28
2023-04-02T10:03:32.907Z,98790.03
2023-04-02T10:06:09.397Z,98792.22
2023-04-02T10:08:43.019Z,98795.78
2023-04-02T10:11:20.110Z,98792.81
2023-04-02T10:13:56.550Z,98788.53
2023-04-02T10:16:33.562Z,98784.03
2023-04-02T10:19:13.355Z,98782.31
2023-04-02T10:21:50.254Z,98779.44
2023-04-02T10:24:23.401Z,98782.31
2023-04-02T10:27:02.036Z,98788.22
2023-04-02T10:30:04.039Z,98785.06
2023-04-02T10:32:40.833Z,98780.59
2023-04-02T10:35:18.812Z,98768.69
2023-04-02T10:38:07.836Z,98774.19
2023-04-02T10:40:43.886Z,98775.97
2023-04-02T10:43:40.799Z,98768.69
2023-04-02T10:46:17.622Z,98778.72
2023-04-02T10:48:55.352Z,98781.16
2023-04-02T10:51:30.995Z,98766.22
2023-04-02T10:54:09.038Z,98763.78
2023-04-02T10:56:50.559Z,98761.72
2023-04-02T10:59:26.226Z,98755.00
2023-04-02T11:02:01.768Z,98753.53
2023-04-02T11:04:39.713Z,98748.72
2023-04-02T11:07:17.271Z,98752.56
2023-04-02T11:09:53.196Z,98747.47
2023-04-02T11:12:42.230Z,98748.34
2023-04-02T11:15:17.568Z,98740.34
2023-04-02T11:17:51.638Z,98744.66
2023-04-02T11:20:58.414Z,98741.28
2023-04-02T11:23:33.168Z,98740.22
2023-04-02T11:26:31.523Z,98738.84
2023-04-02T11:29:18.134Z,98732.69
2023-04-02T11:31:52.441Z,98733.47
2023-04-02T11:35:05.765Z,98731.25
2023-04-02T11:37:40.332Z,98734.78
2023-04-02T11:40:31.818Z,98723.84
2023-04-02T11:43:19.589Z,98731.31
2023-04-02T11:45:56.707Z,98732.34
2023-04-02T11:48:33.934Z,98718.72
2023-04-02T11:51:16.469Z,98715.59
2023-04-02T11:53:51.117Z,98710.44
2023-04-02T11:56:29.147Z,98710.44
2023-04-02T11:59:08.062Z,98699.50
2023-04-02T12:02:06.213Z,98701.25
2023-04-02T12:04:59.314Z,98703.31
2023-04-02T12:07:38.426Z,98691.91
2023-04-02T12:10:17.826Z,98696.28
2023-04-02T12:12:52.073Z,98703.38
2023-04-02T12:15:32.355Z,98693.00
2023-04-02T12:18:12.607Z,98693.41
2023-04-02T12:20:50.911Z,98692.00
2023-04-02T12:23:25.562Z,98694.22
2023-04-02T12:25:59.701Z,98682.38
2023-04-02T12:28:33.962Z,98677.81
2023-04-02T12:31:13.383Z,98668.00
2023-04-02T12:33:52.640Z,98669.00
2023-04-02T12:36:25.694Z,98664.59
2023-04-02T12:38:59.375Z,98668.09
2023-04-02T12:41:33.461Z,98662.31
2023-04-02T12:44:11.618Z,98655.72
2023-04-02T12:46:45.526Z,98649.34
2023-04-02T12:49:24.895Z,98653.09
2023-04-02T12:51:58.577Z,98649.78
2023-04-02T12:54:34.276Z,98655.03
2023-04-02T12:57:21.991Z,98642.97
2023-04-02T12:59:55.590Z,98648.16
2023-04-02T13:02:30.130Z,98654.59
2023-04-02T13:05:05.011Z,98650.03
2023-04-02T13:07:38.444Z,98651.31
2023-04-02T13:10:24.655Z,98648.97
2023-04-02T13:13:01.992Z,98645.69
2023-04-02T13:15:38.525Z,98640.06
2023-04-02T13:18:20.053Z,98647.97
2023-04-02T13:20:59.021Z,98638.59
2023-04-02T13:23:37.447Z,98643.78
2023-04-02T13:26:15.748Z,98639.66
2023-04-02T13:28:58.993Z,98633.81
2023-04-02T13:31:32.949Z,98630.53
2023-04-02T13:34:16.914Z,98637.19
2023-04-02T13:36:51.793Z,98636.56
2023-04-02T13:39:25.238Z,98630.97
2023-04-02T13:41:59.094Z,98627.91
2023-04-02T13:44:33.290Z,98621.81
2023-04-02T13:47:06.483Z,98625.56
2023-04-02T13:49:39.495Z,98632.00
2023-04-02T13:52:15.866Z,98625.56
2023-04-02T13:54:50.881Z,98629.28
2023-04-02T13:57:24.480Z,98622.81
2023-04-02T13:59:57.505Z,98620.56
2023-04-02T14:02:30.777Z,98613.91
2023-04-02T14:05:12.214Z,98615.59
2023-04-02T14:07:51.922Z,98618.69
2023-04-02T14:10:32.414Z,98611.84
2023-04-02T14:13:13.476Z,98613.72
2023-04-02T14:15:57.359Z,98622.66
2023-04-02T14:18:41.244Z,98621.63
2023-04-02T14:21:18.307Z,98614.38
2023-04-02T14:23:59.454Z,98623.72
2023-04-02T14:26:39.806Z,98625.19
2023-04-02T14:29:16.818Z,98616.88
2023-04-02T14:32:04.280Z,98616.44
2023-04-02T14:34:51.630Z,98612.91
2023-04-02T14:37:30.647Z,98617.06
2023-04-02T14:40:10.527Z,98616.06
2023-04-02T14:42:46.255Z,98611.09
2023-04-02T14:45:24.963Z,98612.06
2023-04-02T14:48:00.370Z,98609.00
2023-04-02T14:50:39.300Z,98611.50
2023-04-02T14:53:15.671Z,98619.75
2023-04-02T14:55:51.018Z,98624.34
2023-04-02T14:58:26.188Z,98626.00
2023-04-02T15:01:04.240Z,98623.91
2023-04-02T15:03:43.399Z,98626.81
2023-04-02T15:06:19.802Z,98632.22
2023-04-02T15:09:08.477Z,98629.31
2023-04-02T15:11:45.789Z,98633.03
2023-04-02T15:14:21.640Z,98633.06
2023-04-02T15:16:58.318Z,98634.06
2023-04-02T15:19:31.427Z,98636.56
2023-04-02T15:22:09.679Z,98636.13
2023-04-02T15:24:48.222Z,98636.53
2023-04-02T15:27:33.155Z,98639.44
2023-04-02T15:30:19.340Z,98638.03
2023-04-02T15:32:54.374Z,98635.09
2023-04-02T15:35:33.819Z,98638.84
2023-04-02T15:38:10.708Z,98640.28
2023-04-02T15:40:55.964Z,98648.38
2023-04-02T15:43:31.609Z,98647.97
2023-04-02T15:46:12.583Z,98646.72
2023-04-02T15:49:03.815Z,98659.59
2023-04-02T15:51:42.308Z,98651.69
2023-04-02T15:54:30.310Z,98652.53
2023-04-02T15:57:19.579Z,98663.13
2023-04-02T16:00:04.782Z,98666.84
2023-04-02T16:02:49.057Z,98663.72
2023-04-02T16:05:28.803Z,98666.19
2023-04-02T16:08:09.323Z,98672.81
2023-04-02T16:10:43.344Z,98675.31
2023-04-02T16:13:29.749Z,98681.72
2023-04-02T16:16:07.229Z,98675.03
2023-04-02T16:18:46.083Z,98677.31
2023-04-02T16:21:21.560Z,98670.66
2023-04-02T16:24:07.304Z,98672.47
2023-04-02T16:26:48.656Z,98672.44
2023-04-02T16:29:35.577Z,98675.72
2023-04-02T16:32:23.264Z,98681.53
2023-04-02T16:35:15.019Z,98692.25
2023-04-02T16:37:57.581Z,98690.00
2023-04-02T16:40:34.867Z,98686.84
2023-04-02T16:43:12.671Z,98686.75
2023-04-02T16:45:50.923Z,98693.13
2023-04-02T16:48:30.986Z,98693.09
2023-04-02T16:51:10.989Z,98694.41
2023-04-02T16:54:01.136Z,98694.94
2023-04-02T16:56:41.670Z,98690.16
2023-04-02T16:59:20.118Z,98694.00
2023-04-02T17:02:05.463Z,98704.16
2023-04-02T17:04:54.737Z,98704.59
2023-04-02T17:07:29.965Z,98709.09
2023-04-02T17:10:20.308Z,98707.38
2023-04-02T17:12:59.747Z,98713.34
2023-04-02T17:15:37.117Z,98712.69
2023-04-02T17:18:14.816Z,98712.75
2023-04-02T17:20:49.533Z,98714.63
2023-04-02T17:23:23.044Z,98714.94
2023-04-02T17:25:58.336Z,98713.59
2023-04-02T17:28:42.503Z,98724.50
2023-04-02T17:31:18.837Z,98724.44
2023-04-02T17:33:52.367Z,98735.38
2023-04-02T17:36:32.849Z,98733.59
2023-04-02T17:39:19.459Z,98736.41
2023-04-02T17:41:54.975Z,98736.22
2023-04-02T17:44:43.151Z,98745.50
2023-04-02T17:47:19.955Z,98756.91
2023-04-02T17:50:02.582Z,98764.16
2023-04-02T17:52:40.529Z,98765.75
2023-04-02T17:55:29.294Z,98770.69
2023-04-02T17:58:07.861Z,98762.72
2023-04-02T18:00:50.835Z,98764.13
2023-04-02T18:03:44.094Z,98767.41
2023-04-02T18:06:20.053Z,98778.53
2023-04-02T18:09:05.421Z,98780.66
2023-04-02T18:11:44.576Z,98772.56
2023-04-02T18:14:28.432Z,98780.84
2023-04-02T18:17:07.360Z,98768.66
2023-04-02T18:19:47.320Z,98770.72
2023-04-02T18:22:23.995Z,98777.59
2023-04-02T18:25:10.657Z,98773.69
2023-04-02T18:27:52.082Z,98786.94
2023-04-02T18:30:28.031Z,98781.84
2023-04-02T18:33:09.316Z,98783.66
2023-04-02T18:35:48.981Z,98783.16
2023-04-02T18:38:30.560Z,98784.81
2023-04-02T18:41:12.554Z,98793.06
2023-04-02T18:43:53.179Z,98798.81
2023-04-02T18:46:34.037Z,98794.59
2023-04-02T18:49:19.445Z,98796.34
2023-04-02T18:51:55.758Z,98798.28
2023-04-02T18:54:32.097Z,98799.34
2023-04-02T18:57:11.871Z,98799.28
2023-04-02T18:59:47.968Z,98795.84
2023-04-02T19:02:30.591Z,98797.50
2023-04-02T19:05:05.788Z,98797.41
2023-04-02T19:07:41.827Z,98801.38
2023-04-02T19:10:22.716Z,98805.16
2023-04-02T19:13:06.027Z,98813.16
2023-04-02T19:15:45.625Z,98822.44
2023-04-02T19:18:26.033Z,98822.44
2023-04-02T19:21:02.214Z,98822.16
2023-04-02T19:23:40.878Z,98823.81
2023-04-02T19:26:17.220Z,98825.31
2023-04-02T19:28:58.464Z,98825.72
2023-04-02T19:31:41.290Z,98834.97
2023-04-02T19:34:29.560Z,98841.28
2023-04-02T19:37:04.455Z,98844.25
2023-04-02T19:39:46.879Z,98845.22
2023-04-02T19:42:24.584Z,98861.72
2023-04-02T19:44:59.004Z,98863.16
2023-04-02T19:47:32.223Z,98878.19
2023-04-02T19:50:06.027Z,98893.13
2023-04-02T19:52:39.092Z,98907.38
2023-04-02T19:55:12.266Z,98907.38
2023-04-02T19:57:45.277Z,98899.22
2023-04-02T20:00:20.509Z,98906.50
2023-04-02T20:02:56.148Z,98906.53
2023-04-02T20:05:39.865Z,98904.03
2023-04-02T20:08:12.779Z,98892.09
2023-04-02T20:10:46.161Z,98885.94
2023-04-02T20:13:19.898Z,98885.34
2023-04-02T20:15:54.784Z,98881.72
2023-04-02T20:18:28.474Z,98872.28
2023-04-02T20:21:04.960Z,98871.13
2023-04-02T20:23:38.315Z,98869.72
2023-04-02T20:26:11.700Z,98864.09
2023-04-02T20:28:44.933Z,98859.72
2023-04-02T20:31:19.660Z,98861.22
2023-04-02T20:33:55.782Z,98860.78
2023-04-02T20:36:28.971Z,98865.06
2023-04-02T20:39:01.928Z,98860.59
2023-04-02T20:41:35.111Z,98864.44
2023-04-02T20:44:08.363Z,98873.16
2023-04-02T20:46:42.714Z,98870.13
2023-04-02T20:49:15.682Z,98870.50
2023-04-02T20:51:49.593Z,98874.78
2023-04-02T20:54:23.017Z,98878.84
2023-04-02T20:56:56.281Z,98879.84
2023-04-02T20:59:29.602Z,98886.88
2023-04-02T21:02:04.530Z,98888.91
2023-04-02T21:04:37.938Z,98878.84
2023-04-02T21:07:18.577Z,98883.69
2023-04-02T21:09:52.406Z,98890.41
2023-04-02T21:12:26.982Z,98897.44
2023-04-02T21:15:02.825Z,98897.41
2023-04-02T21:17:37.386Z,98900.94
2023-04-02T21:20:12.141Z,98905.09
2023-04-02T21:22:46.084Z,98909.13
2023-04-02T21:25:20.288Z,98896.94
2023-04-02T21:27:53.149Z,98909.66
2023-04-02T21:30:26.451Z,98903.25
2023-04-02T21:33:01.312Z,98899.75
2023-04-02T21:35:35.269Z,98890.22
2023-04-02T21:38:08.636Z,98889.03
2023-04-02T21:40:44.603Z,98889.00
2023-04-02T21:43:17.673Z,98886.84
2023-04-02T21:45:50.611Z,98880.19
2023-04-02T21:48:25.084Z,98892.16
2023-04-02T21:51:05.312Z,98890.31
2023-04-02T21:53:38.412Z,98891.50
2023-04-02T21:56:13.615Z,98887.28
2023-04-02T21:58:47.328Z,98886.66
2023-04-02T22:01:27.218Z,98889.63
2023-04-02T22:04:05.340Z,98890.78
2023-04-02T22:06:39.532Z,98895.44
2023-04-02T22:09:13.819Z,98895.97
2023-04-02T22:11:51.494Z,98896.38
2023-04-02T22:14:25.683Z,98894.41
2023-04-02T22:17:07.580Z,98889.94
2023-04-02T22:19:43.359Z,98889.81
2023-04-02T22:22:16.562Z,98895.78
2023-04-02T22:24:49.762Z,98896.13
2023-04-02T22:27:22.997Z,98901.59
2023-04-02T22:29:55.851Z,98901.75
2023-04-02T22:32:28.858Z,98908.03
2023-04-02T22:35:06.252Z,98919.88
2023-04-02T22:37:41.364Z,98909.47
2023-04-02T22:40:14.495Z,98912.72
2023-04-02T22:42:48.635Z,98913.22
2023-04-02T22:45:29.439Z,98910.44
2023-04-02T22:48:02.925Z,98905.09
2023-04-02T22:50:37.862Z,98918.38
2023-04-02T22:53:15.231Z,98909.44
2023-04-02T22:55:48.266Z,98909.00
2023-04-02T22:58:23.994Z,98915.84
2023-04-02T23:00:57.188Z,98913.94
2023-04-02T23:03:30.512Z,98904.41
2023-04-02T23:06:06.169Z,98917.09
2023-04-02T23:08:42.202Z,98910.78
2023-04-02T23:11:28.368Z,98910.56
2023-04-02T23:14:04.457Z,98911.63
2023-04-02T23:16:37.764Z,98914.66
2023-04-02T23:19:22.041Z,98912.28
2023-04-02T23:21:56.892Z,98911.75
2023-04-02T23:24:29.928Z,98911.06
2023-04-02T23:27:05.597Z,98911.53
2023-04-02T23:29:38.767Z,98908.19
2023-04-02T23:32:11.925Z,98904.38
2023-04-02T23:34:47.401Z,98902.63
2023-04-02T23:37:21.866Z,98903.47
2023-04-02T23:39:54.893Z,98904.22
2023-04-02T23:42:28.422Z,98898.00
2023-04-02T23:45:01.473Z,98896.31
2023-04-02T23:47:34.606Z,98898.53
2023-04-02T23:50:08.528Z,98897.34
2023-04-02T23:52:42.835Z,98887.16
2023-04-02T23:55:15.863Z,98898.75
2023-04-02T23:57:48.879Z,98905.41
